NOAA-Style Climate Reports

Select a Year or Month report
2021: Jan Feb Mar Apr May Jun Jul Aug Sep Oct Nov Dec
2020: Jan Feb Mar Apr May Jun Jul Aug Sep Oct Nov Dec
2019: Jan Feb Mar Apr May Jun Jul Aug Sep Oct Nov Dec
2018: Jan Feb Mar Apr May Jun Jul Aug Sep Oct Nov Dec
2017: Jan Feb Mar Apr May Jun Jul Aug Sep Oct Nov Dec
2016: Jan Feb Mar Apr May Jun Jul Aug Sep Oct Nov Dec
2015: Jan Feb Mar Apr May Jun Jul Aug Sep Oct Nov Dec

Report for 2020 August
                   Monthly Climatological Summary for Aug 2020

Name: Gisborne West   City: Poverty Bay   State: New Zealand
Elevation: 23 m  Lat: S 38° 38' 56"   Lon: E 177° 59' 31"

                  Temperature (°C), Rain (mm), Wind Speed (km/h)

                                      Heat  Cool        Avg
    Mean                              Deg   Deg         Wind                 Dom
Day Temp  High   Time   Low    Time   Days  Days  Rain  Speed High   Time    Dir
----------------------------------------------------------------------------------
 1   1.8   1.8   00:00   1.8   00:00  16.5   0.0   0.0   0.0   1.1   00:00   ---
 2   1.8   1.8   00:00   1.8   00:00  16.5   0.0   0.0   0.0   1.1   00:00   ---
 3   1.8   1.8   00:00   1.8   00:00  16.5   0.0   0.0   0.0   1.1   00:00   ---
 4   1.8   1.8   00:00   1.8   00:00  16.5   0.0   0.0   0.0   1.1   00:00   ---
 5   1.8   1.8   00:00   1.8   00:00  16.5   0.0   0.0   0.0   1.1   00:00   ---
 6   1.8   1.8   00:00   1.8   00:00  16.5   0.0   0.0   0.0   1.1   00:00   ---
 7   1.8   1.8   00:00   1.8   00:00  16.5   0.0   0.0   0.0   1.1   00:00   ---
 8   1.8   1.8   00:00   1.8   00:00  16.5   0.0   0.0   0.0   1.1   00:00   ---
 9   1.8   1.8   00:00   1.8   00:00  16.5   0.0   0.0   0.0   1.1   00:00   ---
10  12.8  31.8   22:05   1.8   00:00   9.6   4.0   0.0   4.5  27.0   22:35   NNW
11  23.0  31.0   00:05  17.1   11:35   0.1   4.7   0.0   9.9  25.6   01:35    NW
12  16.9  26.5   00:05  15.8   07:06   1.9   0.3   8.7   7.9  23.4   02:35   NNW
13  15.8  15.8   00:06  15.8   00:06   2.5   0.0   0.0   7.3  27.0   22:06   WNW
14  15.8  15.8   00:06  15.8   00:06   2.5   0.0   0.3  10.4  29.5   21:06   WNW
15  15.8  15.8   00:06  15.8   00:06   2.5   0.0   2.7  11.1  34.2   18:06    NW
16  15.8  15.8   00:06  15.8   00:06   2.5   0.0   9.0   6.6  30.6   20:07   NNW
17  15.8  15.8   00:07  15.8   00:07   2.5   0.0   4.8   8.9  25.6   00:37     N
18  15.8  15.8   00:07  15.8   00:07   2.5   0.0   1.5   9.5  24.5   00:07     N
19  15.8  15.8   00:07  15.8   00:07   2.5   0.0   0.0   4.2  19.4   00:07   NNW
20  15.8  15.8   00:07  15.8   00:07   2.5   0.0   0.0   3.3  19.4   21:37   NNW
21  15.8  15.8   00:07  15.8   00:07   2.5   0.0   0.0   6.8  22.0   18:08     N
22  15.2  20.8   15:46   8.1   23:57   3.5   0.3   0.0   2.2  15.8   00:38     N
23   7.8   8.3   00:07   7.6   00:36  10.5   0.0   0.0   0.0   5.0   00:06     N
24   7.8   7.8   00:00   7.8   00:00  10.5   0.0   0.0   0.0   1.1   00:00   ---
25   7.8   7.8   00:00   7.8   00:00  10.5   0.0   0.0   0.0   1.1   00:00   ---
26   7.8   7.8   00:00   7.8   00:00  10.5   0.0   0.0   0.0   1.1   00:00   ---
27   7.8   7.8   00:00   7.8   00:00  10.5   0.0   0.0   0.0   1.1   00:00   ---
28   7.8   7.8   00:00   7.8   00:00  10.5   0.0   0.0   0.0   1.1   00:00   ---
29   7.8   7.8   00:00   7.8   00:00  10.5   0.0   0.0   0.0   1.1   00:00   ---
30   7.8   7.8   00:00   7.8   00:00  10.5   0.0   0.0   0.0   1.1   00:00   ---
31   7.8   7.8   00:00   7.8   00:00  10.5   0.0   0.0   0.0   1.1   00:00   ---
----------------------------------------------------------------------------------
     9.6  31.8    10     1.8     1   280.6   9.3  27.0   3.0  34.2    15     NNW

Max >=  27.0:  2
Max <=   0.0:  0
Min <=   0.0:  0
Min <= -18.0:  0
Max Rain: 9.0 on day 16
Days of Rain: 6 (>= 0.2 mm)  4 (>= 2.0 mm)  0 (>= 20.0 mm)
Heat Base: 18.3  Cool Base: 18.3  Method: Integration